createdAt,value
2022-08-01T00:00:45.153Z,100.00
2022-08-01T00:03:50.240Z,100.00
2022-08-01T00:06:53.861Z,100.00
2022-08-01T00:09:57.502Z,100.00
2022-08-01T00:13:01.171Z,100.00
2022-08-01T00:16:05.016Z,100.00
2022-08-01T00:19:10.175Z,100.00
2022-08-01T00:22:13.777Z,100.00
2022-08-01T00:25:17.495Z,100.00
2022-08-01T00:28:21.156Z,100.00
2022-08-01T00:31:24.832Z,100.00
2022-08-01T00:34:29.843Z,100.00
2022-08-01T00:37:33.475Z,100.00
2022-08-01T00:40:37.212Z,100.00
2022-08-01T00:43:40.898Z,100.00
2022-08-01T00:46:44.627Z,100.00
2022-08-01T00:49:49.775Z,100.00
2022-08-01T00:52:54.079Z,100.00
2022-08-01T00:55:58.803Z,100.00
2022-08-01T00:59:02.835Z,100.00
2022-08-01T01:02:15.597Z,100.00
2022-08-01T01:05:21.268Z,100.00
2022-08-01T01:08:34.791Z,100.00
2022-08-01T01:11:50.896Z,100.00
2022-08-01T01:15:06.744Z,100.00
2022-08-01T01:18:16.967Z,100.00
2022-08-01T01:21:53.140Z,100.00
2022-08-01T01:25:28.266Z,100.00
2022-08-01T01:28:43.052Z,100.00
2022-08-01T01:32:06.270Z,100.00
2022-08-01T01:35:17.947Z,100.00
2022-08-01T01:38:27.551Z,100.00
2022-08-01T01:41:32.983Z,100.00
2022-08-01T01:44:38.679Z,100.00
2022-08-01T01:47:46.627Z,100.00
2022-08-01T01:50:53.486Z,100.00
2022-08-01T01:53:59.798Z,100.00
2022-08-01T01:57:07.256Z,100.00
2022-08-01T02:00:13.999Z,100.00
2022-08-01T02:03:21.888Z,100.00
2022-08-01T02:06:29.034Z,100.00
2022-08-01T02:09:36.150Z,100.00
2022-08-01T02:12:46.605Z,100.00
2022-08-01T02:15:59.830Z,100.00
2022-08-01T02:19:05.863Z,100.00
2022-08-01T02:22:18.939Z,100.00
2022-08-01T02:25:28.031Z,100.00
2022-08-01T02:28:36.815Z,100.00
2022-08-01T02:31:48.009Z,100.00
2022-08-01T02:34:55.937Z,100.00
2022-08-01T02:38:03.280Z,100.00
2022-08-01T02:41:12.175Z,100.00
2022-08-01T02:44:29.448Z,100.00
2022-08-01T02:47:35.226Z,100.00
2022-08-01T02:50:44.272Z,100.00
2022-08-01T02:53:50.073Z,100.00
2022-08-01T02:56:55.689Z,100.00
2022-08-01T03:00:03.773Z,100.00
2022-08-01T03:03:11.113Z,100.00
2022-08-01T03:06:19.563Z,100.00
2022-08-01T03:09:25.917Z,100.00
2022-08-01T03:12:35.286Z,100.00
2022-08-01T03:15:42.341Z,100.00
2022-08-01T03:18:47.794Z,100.00
2022-08-01T03:21:54.465Z,100.00
2022-08-01T03:25:01.821Z,100.00
2022-08-01T03:28:09.791Z,100.00
2022-08-01T03:31:16.184Z,100.00
2022-08-01T03:34:22.330Z,100.00
2022-08-01T03:37:36.802Z,100.00
2022-08-01T03:40:47.396Z,100.00
2022-08-01T03:44:00.806Z,100.00
2022-08-01T03:47:10.698Z,100.00
2022-08-01T03:50:18.743Z,100.00
2022-08-01T03:53:31.088Z,100.00
2022-08-01T03:56:36.671Z,100.00
2022-08-01T03:59:41.925Z,100.00
2022-08-01T04:02:47.390Z,100.00
2022-08-01T04:05:51.634Z,100.00
2022-08-01T04:08:57.701Z,100.00
2022-08-01T04:12:02.287Z,100.00
2022-08-01T04:15:16.180Z,100.00
2022-08-01T04:18:20.205Z,100.00
2022-08-01T04:21:29.775Z,100.00
2022-08-01T04:24:37.472Z,100.00
2022-08-01T04:27:50.427Z,100.00
2022-08-01T04:31:02.138Z,100.00
2022-08-01T04:34:08.778Z,100.00
2022-08-01T04:37:15.064Z,100.00
2022-08-01T04:40:22.887Z,100.00
2022-08-01T04:43:26.739Z,100.00
2022-08-01T04:46:32.044Z,100.00
2022-08-01T04:49:44.433Z,100.00
2022-08-01T04:52:53.203Z,100.00
2022-08-01T04:55:58.380Z,100.00
2022-08-01T04:59:20.023Z,100.00
2022-08-01T05:02:24.122Z,100.00
2022-08-01T05:05:27.868Z,100.00
2022-08-01T05:08:31.515Z,100.00
2022-08-01T05:11:36.566Z,100.00
2022-08-01T05:14:40.439Z,100.00
2022-08-01T05:17:44.360Z,100.00
2022-08-01T05:20:48.400Z,100.00
2022-08-01T05:23:52.095Z,100.00
2022-08-01T05:26:57.610Z,100.00
2022-08-01T05:30:01.270Z,100.00
2022-08-01T05:33:04.972Z,100.00
2022-08-01T05:36:09.871Z,100.00
2022-08-01T05:39:13.754Z,100.00
2022-08-01T05:42:18.844Z,100.00
2022-08-01T05:45:22.615Z,100.00
2022-08-01T05:48:26.705Z,100.00
2022-08-01T05:51:30.384Z,100.00
2022-08-01T05:54:34.147Z,100.00
2022-08-01T05:57:39.243Z,100.00
2022-08-01T06:00:44.351Z,100.00
2022-08-01T06:03:48.443Z,100.00
2022-08-01T06:06:52.187Z,100.00
2022-08-01T06:09:55.809Z,100.00
2022-08-01T06:13:03.981Z,100.00
2022-08-01T06:16:07.942Z,100.00
2022-08-01T06:19:11.699Z,100.00
2022-08-01T06:22:15.320Z,100.00
2022-08-01T06:25:21.158Z,100.00
2022-08-01T06:28:26.661Z,99.30
2022-08-01T06:31:33.547Z,98.67
2022-08-01T06:34:37.816Z,98.22
2022-08-01T06:37:41.448Z,97.63
2022-08-01T06:40:45.202Z,97.31
2022-08-01T06:43:50.293Z,97.01
2022-08-01T06:46:53.905Z,96.75
2022-08-01T06:49:57.582Z,96.01
2022-08-01T06:53:01.291Z,96.00
2022-08-01T06:56:06.639Z,96.09
2022-08-01T06:59:11.832Z,95.53
2022-08-01T07:02:15.517Z,95.12
2022-08-01T07:05:20.673Z,94.82
2022-08-01T07:08:24.396Z,94.46
2022-08-01T07:11:28.061Z,94.14
2022-08-01T07:14:33.101Z,93.84
2022-08-01T07:17:40.937Z,93.21
2022-08-01T07:20:51.863Z,92.72
2022-08-01T07:23:56.713Z,92.18
2022-08-01T07:27:00.340Z,91.86
2022-08-01T07:30:26.067Z,90.68
2022-08-01T07:33:48.700Z,90.24
2022-08-01T07:36:53.801Z,89.56
2022-08-01T07:39:57.439Z,88.79
2022-08-01T07:43:01.060Z,88.61
2022-08-01T07:46:06.870Z,88.47
2022-08-01T07:49:10.679Z,88.00
2022-08-01T07:52:14.375Z,87.69
2022-08-01T07:55:18.077Z,87.03
2022-08-01T07:58:21.775Z,86.52
2022-08-01T08:01:27.838Z,85.86
2022-08-01T08:04:31.549Z,81.94
2022-08-01T08:07:35.476Z,81.15
2022-08-01T08:10:39.308Z,80.98
2022-08-01T08:13:45.007Z,80.41
2022-08-01T08:16:50.016Z,80.47
2022-08-01T08:19:53.676Z,80.91
2022-08-01T08:22:58.910Z,81.26
2022-08-01T08:26:02.660Z,80.53
2022-08-01T08:29:06.355Z,79.89
2022-08-01T08:32:11.736Z,76.04
2022-08-01T08:35:20.126Z,74.59
2022-08-01T08:38:29.918Z,74.14
2022-08-01T08:41:37.933Z,74.11
2022-08-01T08:44:44.572Z,72.88
2022-08-01T08:47:51.681Z,71.12
2022-08-01T08:50:58.535Z,71.42
2022-08-01T08:54:06.299Z,70.78
2022-08-01T08:57:11.631Z,68.35
2022-08-01T09:00:17.411Z,68.03
2022-08-01T09:03:22.506Z,69.22
2022-08-01T09:06:26.832Z,67.66
2022-08-01T09:09:31.304Z,66.58
2022-08-01T09:12:36.079Z,64.87
2022-08-01T09:15:46.100Z,64.67
2022-08-01T09:18:53.489Z,63.66
2022-08-01T09:22:02.830Z,64.60
2022-08-01T09:25:10.705Z,64.94
2022-08-01T09:28:14.298Z,62.95
2022-08-01T09:31:21.298Z,62.91
2022-08-01T09:34:31.489Z,62.57
2022-08-01T09:37:37.306Z,62.97
2022-08-01T09:40:53.343Z,62.93
2022-08-01T09:43:57.170Z,61.39
2022-08-01T09:47:07.690Z,61.48
2022-08-01T09:50:13.698Z,60.96
2022-08-01T09:53:24.456Z,61.00
2022-08-01T09:56:43.552Z,61.32
2022-08-01T10:00:00.610Z,60.72
2022-08-01T10:03:24.029Z,60.67
2022-08-01T10:06:29.184Z,61.09
2022-08-01T10:09:40.772Z,59.24
2022-08-01T10:12:45.992Z,60.61
2022-08-01T10:15:52.954Z,60.14
2022-08-01T10:18:59.108Z,59.98
2022-08-01T10:22:06.896Z,57.31
2022-08-01T10:25:14.001Z,56.92
2022-08-01T10:28:24.267Z,57.97
2022-08-01T10:31:32.085Z,58.75
2022-08-01T10:34:37.477Z,58.18
2022-08-01T10:37:52.038Z,57.44
2022-08-01T10:40:59.231Z,57.01
2022-08-01T10:44:04.101Z,55.55
2022-08-01T10:47:14.676Z,56.26
2022-08-01T10:50:30.723Z,56.41
2022-08-01T10:53:42.991Z,56.93
2022-08-01T10:56:51.589Z,57.18
2022-08-01T10:59:59.280Z,57.16
2022-08-01T11:03:08.835Z,57.38
2022-08-01T11:06:19.723Z,58.43
2022-08-01T11:09:37.021Z,58.67
2022-08-01T11:12:43.918Z,58.77
2022-08-01T11:15:49.911Z,58.37
2022-08-01T11:18:54.718Z,58.55
2022-08-01T11:22:04.934Z,58.04
2022-08-01T11:25:10.130Z,56.19
2022-08-01T11:28:30.137Z,55.83
2022-08-01T11:31:38.172Z,56.62
2022-08-01T11:34:58.039Z,57.24
2022-08-01T11:38:28.410Z,56.85
2022-08-01T11:41:39.077Z,56.74
2022-08-01T11:44:52.428Z,56.12
2022-08-01T11:47:57.042Z,56.43
2022-08-01T11:51:02.282Z,56.45
2022-08-01T11:54:06.523Z,55.42
2022-08-01T11:57:14.991Z,55.46
2022-08-01T12:00:20.781Z,55.45
2022-08-01T12:03:33.450Z,55.81
2022-08-01T12:06:37.998Z,55.06
2022-08-01T12:09:45.398Z,54.62
2022-08-01T12:12:52.917Z,55.48
2022-08-01T12:15:57.318Z,55.23
2022-08-01T12:19:01.594Z,54.72
2022-08-01T12:22:11.415Z,55.98
2022-08-01T12:25:17.162Z,55.07
2022-08-01T12:28:22.659Z,55.59
2022-08-01T12:31:34.858Z,55.04
2022-08-01T12:34:39.109Z,54.97
2022-08-01T12:37:45.848Z,55.74
2022-08-01T12:40:53.396Z,56.31
2022-08-01T12:44:01.377Z,54.92
2022-08-01T12:47:08.844Z,56.22
2022-08-01T12:50:17.024Z,56.03
2022-08-01T12:53:22.675Z,57.57
2022-08-01T12:56:35.204Z,56.81
2022-08-01T12:59:41.407Z,56.61
2022-08-01T13:02:46.788Z,56.64
2022-08-01T13:05:53.288Z,55.45
2022-08-01T13:08:57.056Z,55.12
2022-08-01T13:12:10.937Z,54.58
2022-08-01T13:15:33.159Z,54.88
2022-08-01T13:18:38.268Z,53.56
2022-08-01T13:21:55.451Z,55.15
2022-08-01T13:25:14.220Z,56.15
2022-08-01T13:28:21.789Z,55.53
2022-08-01T13:31:35.647Z,55.53
2022-08-01T13:34:39.814Z,55.70
2022-08-01T13:37:44.399Z,56.06
2022-08-01T13:40:48.500Z,55.31
2022-08-01T13:43:58.769Z,55.36
2022-08-01T13:47:14.822Z,54.95
2022-08-01T13:50:20.326Z,55.22
2022-08-01T13:53:24.033Z,54.38
2022-08-01T13:56:29.597Z,55.03
2022-08-01T13:59:33.722Z,53.78
2022-08-01T14:02:38.958Z,54.20
2022-08-01T14:05:43.224Z,54.46
2022-08-01T14:08:47.596Z,53.58
2022-08-01T14:11:51.350Z,52.91
2022-08-01T14:14:55.768Z,52.72
2022-08-01T14:18:01.658Z,53.57
2022-08-01T14:21:05.983Z,54.07
2022-08-01T14:24:10.742Z,54.10
2022-08-01T14:27:14.433Z,54.15
2022-08-01T14:30:18.047Z,54.81
2022-08-01T14:33:23.251Z,54.63
2022-08-01T14:36:30.686Z,53.93
2022-08-01T14:39:35.134Z,53.75
2022-08-01T14:42:39.332Z,53.91
2022-08-01T14:45:42.943Z,53.98
2022-08-01T14:48:47.965Z,53.88
2022-08-01T14:51:51.620Z,54.55
2022-08-01T14:54:55.272Z,54.16
2022-08-01T14:57:58.869Z,54.10
2022-08-01T15:01:02.950Z,53.69
2022-08-01T15:04:09.875Z,54.31
2022-08-01T15:07:14.092Z,52.90
2022-08-01T15:10:17.758Z,53.33
2022-08-01T15:13:22.117Z,51.80
2022-08-01T15:16:26.718Z,52.24
2022-08-01T15:19:31.854Z,53.30
2022-08-01T15:22:36.088Z,53.28
2022-08-01T15:25:41.199Z,53.04
2022-08-01T15:28:45.795Z,51.97
2022-08-01T15:31:49.604Z,51.31
2022-08-01T15:34:55.144Z,51.34
2022-08-01T15:37:58.806Z,51.05
2022-08-01T15:41:02.928Z,51.07
2022-08-01T15:44:06.663Z,50.95
2022-08-01T15:47:11.934Z,50.78
2022-08-01T15:50:17.002Z,51.16
2022-08-01T15:53:20.753Z,52.13
2022-08-01T15:56:24.946Z,52.33
2022-08-01T15:59:29.691Z,51.88
2022-08-01T16:02:33.420Z,51.98
2022-08-01T16:05:43.392Z,52.66
2022-08-01T16:08:47.328Z,53.04
2022-08-01T16:11:51.328Z,52.54
2022-08-01T16:14:55.004Z,52.86
2022-08-01T16:18:01.996Z,52.81
2022-08-01T16:21:07.919Z,53.49
2022-08-01T16:24:11.520Z,53.40
2022-08-01T16:27:15.230Z,53.70
2022-08-01T16:30:18.926Z,54.28
2022-08-01T16:33:45.743Z,53.97
2022-08-01T16:36:50.156Z,53.68
2022-08-01T16:39:53.798Z,54.26
2022-08-01T16:43:00.086Z,55.13
2022-08-01T16:46:03.764Z,53.85
2022-08-01T16:49:07.774Z,54.42
2022-08-01T16:52:12.990Z,53.64
2022-08-01T16:55:16.992Z,53.68
2022-08-01T16:58:27.996Z,54.40
2022-08-01T17:01:59.950Z,53.41
2022-08-01T17:04:56.777Z,54.20
2022-08-01T17:08:01.904Z,54.03
2022-08-01T17:11:05.856Z,54.37
2022-08-01T17:14:09.595Z,53.89
2022-08-01T17:17:13.653Z,54.55
2022-08-01T17:20:17.326Z,54.54
2022-08-01T17:23:22.453Z,54.76
2022-08-01T17:26:26.234Z,54.51
2022-08-01T17:29:43.264Z,54.91
2022-08-01T17:32:49.032Z,54.33
2022-08-01T17:35:52.688Z,54.37
2022-08-01T17:38:59.183Z,54.10
2022-08-01T17:42:02.788Z,54.83
2022-08-01T17:45:27.405Z,54.62
2022-08-01T17:48:31.472Z,54.93
2022-08-01T17:51:35.111Z,54.57
2022-08-01T17:54:40.131Z,54.96
2022-08-01T17:57:43.778Z,55.43
2022-08-01T18:00:47.459Z,56.19
2022-08-01T18:03:51.163Z,56.12
2022-08-01T18:06:58.121Z,55.70
2022-08-01T18:10:04.215Z,56.46
2022-08-01T18:13:16.656Z,56.88
2022-08-01T18:16:20.664Z,56.97
2022-08-01T18:19:24.458Z,57.56
2022-08-01T18:22:31.282Z,58.10
2022-08-01T18:25:38.617Z,58.26
2022-08-01T18:28:46.462Z,58.85
2022-08-01T18:31:51.479Z,59.06
2022-08-01T18:34:55.167Z,59.30
2022-08-01T18:37:59.244Z,60.00
2022-08-01T18:41:10.168Z,60.28
2022-08-01T18:44:15.778Z,60.49
2022-08-01T18:47:19.554Z,61.03
2022-08-01T18:50:24.342Z,61.44
2022-08-01T18:53:28.427Z,61.75
2022-08-01T18:56:33.548Z,62.47
2022-08-01T18:59:37.712Z,62.72
2022-08-01T19:02:57.887Z,63.11
2022-08-01T19:06:01.660Z,63.46
2022-08-01T19:09:08.581Z,64.01
2022-08-01T19:12:14.284Z,64.31
2022-08-01T19:15:38.132Z,64.62
2022-08-01T19:18:41.884Z,64.98
2022-08-01T19:21:45.726Z,65.06
2022-08-01T19:24:49.475Z,65.50
2022-08-01T19:27:57.574Z,65.67
2022-08-01T19:31:03.520Z,66.04
2022-08-01T19:34:09.283Z,66.50
2022-08-01T19:37:13.738Z,67.00
2022-08-01T19:40:27.789Z,67.02
2022-08-01T19:43:40.489Z,67.33
2022-08-01T19:46:46.989Z,67.64
2022-08-01T19:49:50.661Z,67.95
2022-08-01T19:52:57.635Z,68.31
2022-08-01T19:56:04.826Z,68.34
2022-08-01T19:59:10.939Z,68.64
2022-08-01T20:02:20.069Z,68.93
2022-08-01T20:05:25.929Z,69.21
2022-08-01T20:08:32.323Z,69.35
2022-08-01T20:11:36.904Z,69.19
2022-08-01T20:14:44.614Z,69.81
2022-08-01T20:17:48.317Z,70.29
2022-08-01T20:20:54.424Z,70.52
2022-08-01T20:24:02.980Z,70.92
2022-08-01T20:27:08.535Z,71.12
2022-08-01T20:30:14.748Z,71.60
2022-08-01T20:33:20.399Z,72.40
2022-08-01T20:36:26.374Z,72.37
2022-08-01T20:39:32.139Z,72.65
2022-08-01T20:42:39.175Z,73.01
2022-08-01T20:45:47.285Z,73.32
2022-08-01T20:48:54.180Z,73.51
2022-08-01T20:51:58.467Z,73.97
2022-08-01T20:55:02.157Z,74.17
2022-08-01T20:58:06.624Z,74.51
2022-08-01T21:01:16.614Z,74.69
2022-08-01T21:04:54.284Z,74.60
2022-08-01T21:08:06.063Z,74.87
2022-08-01T21:11:20.853Z,75.12
2022-08-01T21:14:45.202Z,75.28
2022-08-01T21:17:59.406Z,75.60
2022-08-01T21:21:10.166Z,75.98
2022-08-01T21:24:19.133Z,76.32
2022-08-01T21:27:33.497Z,76.84
2022-08-01T21:30:38.470Z,77.15
2022-08-01T21:33:57.104Z,77.45
2022-08-01T21:37:10.079Z,77.64
2022-08-01T21:40:15.020Z,78.12
2022-08-01T21:43:19.370Z,78.29
2022-08-01T21:46:23.300Z,78.17
2022-08-01T21:49:29.191Z,78.87
2022-08-01T21:52:44.818Z,79.01
2022-08-01T21:56:10.956Z,79.46
2022-08-01T21:59:29.940Z,79.43
2022-08-01T22:02:39.901Z,79.78
2022-08-01T22:05:51.570Z,80.06
2022-08-01T22:09:04.343Z,80.15
2022-08-01T22:12:11.709Z,80.51
2022-08-01T22:15:24.565Z,80.58
2022-08-01T22:18:29.040Z,80.82
2022-08-01T22:21:35.180Z,80.88
2022-08-01T22:24:39.908Z,81.03
2022-08-01T22:28:06.415Z,81.18
2022-08-01T22:31:08.658Z,81.47
2022-08-01T22:34:13.491Z,81.52
2022-08-01T22:37:18.501Z,81.50
2022-08-01T22:40:51.033Z,81.52
2022-08-01T22:44:01.654Z,81.81
2022-08-01T22:47:14.392Z,81.91
2022-08-01T22:50:34.357Z,81.91
2022-08-01T22:53:55.942Z,82.42
2022-08-01T22:57:08.260Z,83.00
2022-08-01T23:00:14.475Z,83.15
2022-08-01T23:03:27.797Z,83.38
2022-08-01T23:06:41.303Z,83.71
2022-08-01T23:09:54.918Z,83.90
2022-08-01T23:13:02.405Z,84.23
2022-08-01T23:16:06.843Z,84.36
2022-08-01T23:19:11.436Z,84.64
2022-08-01T23:22:16.913Z,84.83
2022-08-01T23:25:22.045Z,84.94
2022-08-01T23:28:27.120Z,84.90
2022-08-01T23:31:55.613Z,85.34
2022-08-01T23:34:55.168Z,85.58
2022-08-01T23:38:02.175Z,85.88
2022-08-01T23:41:14.924Z,85.89
2022-08-01T23:44:18.621Z,85.87
2022-08-01T23:47:22.312Z,86.21
2022-08-01T23:50:26.896Z,86.02
2022-08-01T23:53:32.270Z,86.14
2022-08-01T23:56:37.630Z,86.31
2022-08-01T23:59:53.087Z,86.07
